Aérodrome :
LOGIN :

S'inscrire | Disclaimer

   EN    FR    IT 

 










Légende :    VFR   VFR Marginal   IFR   IFR Intensif   IFR Très Intensif
Visi : 
Plafond : 
>= 8 km
>= 3000ft
5 à 8 km
1000 à 3000 ft
1500m à 5 km
500 à 1000 ft
800 à 1500m
200 à 500 ft
< 800m
< 200 ft
Symboles :   Orages  Brouillard  Fortes neiges  Fortes précipitations  Vent > 20 kt
SIGMETs :   Divers  Orages  Givrage  Turbulence  Onde Orograph.  Cendres Volcan.







- Altitude de l'aérodrome : 776 ft
- Code IATA : RMS


ETAR - Ramstein Air Base

DERNIER METAR :
  • 180656Z AUTO 08003KT 9999 CLR 08/05 A3028 RMK AO2 SLP259 T00820051 $

METARs EXPIRÉS :
  • 180556Z AUTO 00000KT 9999 CLR 03/02 A3028 RMK AO2 SLP261 T00270021 10086 20011 53007 $
  • 180456Z AUTO 00000KT 9999 CLR 01/01 A3027 RMK AO2 SLPNO T00130007 $

TAF TAF ETAR
Valide du 18 à 02h jusqu'au 19 à 08h UTC


180158Z 1802/1908 VRB06KT 9999 SKC QNH3023INS
BECMG 1807/1808 03009KT 9999 FEW030 QNH3025INS
TEMPO 1809/1814 05010G15KT
BECMG 1817/1818 03006KT 9999 FEW050 SCT060 QNH3027INS
BECMG 1904/1905 04006KT 9999 BKN030 QNH3034INS TX15/1814Z TN04/1902Z
Pas de NOTAMs connus pour ce terrain.



MET'MAP, la Météo Aéronautique d'un coup d'oeil ! - Copyright ORBIFLY Décembre 2007 - Disclaimer

ORBIFLY MET'MAP TEAM :

Programmation & Développement : Alexandra Zaïnal
Conception & Développement : Baudouin d'Aumeries
Co-Programmation & Développement : Marc-Olivier Méhu
Soutien technique & logistique : Manuel Goepfert

Contact : metmap@orbifly.com




SOURCES & CREDITS :

   NOAA